sensor_id;sensor_type;location;lat;lon;timestamp;P1;durP1;ratioP1;P2;durP2;ratioP2
54909;SDS011;63189;51.240;9.964;2023-05-10T00:00:06;4.72;;;2.13;;
54909;SDS011;63189;51.240;9.964;2023-05-10T00:02:32;2.42;;;1.58;;
54909;SDS011;63189;51.240;9.964;2023-05-10T00:04:58;4.70;;;2.03;;
54909;SDS011;63189;51.240;9.964;2023-05-10T00:07:23;3.85;;;1.83;;
54909;SDS011;63189;51.240;9.964;2023-05-10T00:09:48;2.53;;;2.05;;
54909;SDS011;63189;51.240;9.964;2023-05-10T00:12:13;3.15;;;1.65;;
54909;SDS011;63189;51.240;9.964;2023-05-10T00:14:39;2.70;;;2.03;;
54909;SDS011;63189;51.240;9.964;2023-05-10T00:17:04;5.25;;;1.90;;
54909;SDS011;63189;51.240;9.964;2023-05-10T00:19:29;2.90;;;1.83;;
54909;SDS011;63189;51.240;9.964;2023-05-10T00:21:55;3.17;;;2.22;;
54909;SDS011;63189;51.240;9.964;2023-05-10T00:24:20;3.95;;;1.80;;
54909;SDS011;63189;51.240;9.964;2023-05-10T00:26:46;3.10;;;1.70;;
54909;SDS011;63189;51.240;9.964;2023-05-10T00:29:12;4.30;;;2.05;;
54909;SDS011;63189;51.240;9.964;2023-05-10T00:31:37;4.50;;;2.05;;
54909;SDS011;63189;51.240;9.964;2023-05-10T00:34:03;5.55;;;1.88;;
54909;SDS011;63189;51.240;9.964;2023-05-10T00:36:28;3.33;;;1.77;;
54909;SDS011;63189;51.240;9.964;2023-05-10T00:38:53;2.50;;;1.90;;
54909;SDS011;63189;51.240;9.964;2023-05-10T00:41:19;5.30;;;2.15;;
54909;SDS011;63189;51.240;9.964;2023-05-10T00:43:44;4.75;;;2.00;;
54909;SDS011;63189;51.240;9.964;2023-05-10T00:46:09;4.13;;;1.70;;
54909;SDS011;63189;51.240;9.964;2023-05-10T00:48:35;6.68;;;2.28;;
54909;SDS011;63189;51.240;9.964;2023-05-10T00:51:01;4.22;;;1.80;;
54909;SDS011;63189;51.240;9.964;2023-05-10T00:53:27;2.08;;;1.65;;
54909;SDS011;63189;51.240;9.964;2023-05-10T00:55:52;3.20;;;2.22;;
54909;SDS011;63189;51.240;9.964;2023-05-10T00:58:19;4.03;;;2.60;;
54909;SDS011;63189;51.240;9.964;2023-05-10T01:00:44;2.30;;;1.85;;
54909;SDS011;63189;51.240;9.964;2023-05-10T01:03:11;3.10;;;1.92;;
54909;SDS011;63189;51.240;9.964;2023-05-10T01:05:38;5.03;;;1.80;;
54909;SDS011;63189;51.240;9.964;2023-05-10T01:08:03;4.15;;;2.25;;
54909;SDS011;63189;51.240;9.964;2023-05-10T01:10:29;5.75;;;1.90;;
54909;SDS011;63189;51.240;9.964;2023-05-10T01:12:55;4.38;;;2.08;;
54909;SDS011;63189;51.240;9.964;2023-05-10T01:15:21;3.78;;;2.72;;
54909;SDS011;63189;51.240;9.964;2023-05-10T01:17:48;3.67;;;2.45;;
54909;SDS011;63189;51.240;9.964;2023-05-10T01:20:13;4.97;;;2.50;;
54909;SDS011;63189;51.240;9.964;2023-05-10T01:29:07;3.88;;;2.20;;
54909;SDS011;63189;51.240;9.964;2023-05-10T01:34:28;4.22;;;2.40;;
54909;SDS011;63189;51.240;9.964;2023-05-10T01:37:06;5.15;;;2.78;;
54909;SDS011;63189;51.240;9.964;2023-05-10T01:42:17;4.03;;;2.60;;
54909;SDS011;63189;51.240;9.964;2023-05-10T01:45:47;3.08;;;2.72;;
54909;SDS011;63189;51.240;9.964;2023-05-10T01:47:46;4.53;;;2.55;;
54909;SDS011;63189;51.240;9.964;2023-05-10T01:52:55;4.95;;;2.65;;
54909;SDS011;63189;51.240;9.964;2023-05-10T01:55:24;3.50;;;2.50;;
54909;SDS011;63189;51.240;9.964;2023-05-10T01:57:58;4.13;;;3.20;;
54909;SDS011;63189;51.240;9.964;2023-05-10T02:00:29;4.35;;;3.10;;
54909;SDS011;63189;51.240;9.964;2023-05-10T02:02:56;3.72;;;3.30;;
54909;SDS011;63189;51.240;9.964;2023-05-10T02:05:22;5.30;;;3.47;;
54909;SDS011;63189;51.240;9.964;2023-05-10T02:07:49;4.93;;;3.33;;
54909;SDS011;63189;51.240;9.964;2023-05-10T02:10:18;3.13;;;2.50;;
54909;SDS011;63189;51.240;9.964;2023-05-10T02:12:45;5.28;;;3.15;;
54909;SDS011;63189;51.240;9.964;2023-05-10T02:15:15;3.53;;;2.75;;
54909;SDS011;63189;51.240;9.964;2023-05-10T02:17:44;5.60;;;3.15;;
54909;SDS011;63189;51.240;9.964;2023-05-10T02:20:12;3.45;;;3.15;;
54909;SDS011;63189;51.240;9.964;2023-05-10T02:22:38;6.32;;;3.72;;
54909;SDS011;63189;51.240;9.964;2023-05-10T02:25:05;4.40;;;3.65;;
54909;SDS011;63189;51.240;9.964;2023-05-10T02:27:33;5.05;;;3.25;;
54909;SDS011;63189;51.240;9.964;2023-05-10T02:30:01;6.03;;;3.20;;
54909;SDS011;63189;51.240;9.964;2023-05-10T02:32:27;5.28;;;3.40;;
54909;SDS011;63189;51.240;9.964;2023-05-10T02:34:54;4.45;;;3.72;;
54909;SDS011;63189;51.240;9.964;2023-05-10T02:37:21;4.63;;;3.40;;
54909;SDS011;63189;51.240;9.964;2023-05-10T02:39:47;4.20;;;3.53;;
54909;SDS011;63189;51.240;9.964;2023-05-10T02:42:16;4.20;;;3.67;;
54909;SDS011;63189;51.240;9.964;2023-05-10T02:44:43;4.70;;;3.80;;
54909;SDS011;63189;51.240;9.964;2023-05-10T02:47:12;6.88;;;4.28;;
54909;SDS011;63189;51.240;9.964;2023-05-10T02:49:37;3.90;;;3.50;;
54909;SDS011;63189;51.240;9.964;2023-05-10T02:52:04;5.28;;;4.13;;
54909;SDS011;63189;51.240;9.964;2023-05-10T02:54:41;6.10;;;3.63;;
54909;SDS011;63189;51.240;9.964;2023-05-10T02:57:11;5.72;;;3.70;;
54909;SDS011;63189;51.240;9.964;2023-05-10T02:59:40;5.75;;;4.05;;
54909;SDS011;63189;51.240;9.964;2023-05-10T03:02:08;5.88;;;4.53;;
54909;SDS011;63189;51.240;9.964;2023-05-10T03:04:34;6.45;;;4.50;;
54909;SDS011;63189;51.240;9.964;2023-05-10T03:06:59;5.20;;;4.18;;
54909;SDS011;63189;51.240;9.964;2023-05-10T03:09:25;5.10;;;4.53;;
54909;SDS011;63189;51.240;9.964;2023-05-10T03:18:21;5.53;;;4.70;;
54909;SDS011;63189;51.240;9.964;2023-05-10T03:20:25;6.47;;;5.05;;
54909;SDS011;63189;51.240;9.964;2023-05-10T03:23:12;6.55;;;4.53;;
54909;SDS011;63189;51.240;9.964;2023-05-10T03:25:46;6.32;;;4.47;;
54909;SDS011;63189;51.240;9.964;2023-05-10T03:28:12;6.88;;;5.38;;
54909;SDS011;63189;51.240;9.964;2023-05-10T03:30:40;7.78;;;5.15;;
54909;SDS011;63189;51.240;9.964;2023-05-10T03:33:07;6.97;;;5.20;;
54909;SDS011;63189;51.240;9.964;2023-05-10T03:35:33;6.03;;;4.90;;
54909;SDS011;63189;51.240;9.964;2023-05-10T03:37:59;7.13;;;4.68;;
54909;SDS011;63189;51.240;9.964;2023-05-10T03:40:25;6.45;;;5.47;;
54909;SDS011;63189;51.240;9.964;2023-05-10T03:42:52;7.95;;;5.38;;
54909;SDS011;63189;51.240;9.964;2023-05-10T03:45:17;6.20;;;5.35;;
54909;SDS011;63189;51.240;9.964;2023-05-10T03:47:43;5.82;;;4.80;;
54909;SDS011;63189;51.240;9.964;2023-05-10T03:50:08;5.70;;;5.13;;
54909;SDS011;63189;51.240;9.964;2023-05-10T03:52:35;6.43;;;5.10;;
54909;SDS011;63189;51.240;9.964;2023-05-10T03:55:00;6.50;;;5.65;;
54909;SDS011;63189;51.240;9.964;2023-05-10T03:57:27;7.47;;;6.25;;
54909;SDS011;63189;51.240;9.964;2023-05-10T03:59:53;6.55;;;5.47;;
54909;SDS011;63189;51.240;9.964;2023-05-10T04:02:18;7.03;;;5.78;;
54909;SDS011;63189;51.240;9.964;2023-05-10T04:04:43;8.90;;;5.88;;
54909;SDS011;63189;51.240;9.964;2023-05-10T04:07:09;8.05;;;6.45;;
54909;SDS011;63189;51.240;9.964;2023-05-10T04:09:35;6.68;;;5.15;;
54909;SDS011;63189;51.240;9.964;2023-05-10T04:12:00;7.50;;;5.80;;
54909;SDS011;63189;51.240;9.964;2023-05-10T04:14:27;8.45;;;5.68;;
54909;SDS011;63189;51.240;9.964;2023-05-10T04:16:52;7.13;;;6.18;;
54909;SDS011;63189;51.240;9.964;2023-05-10T04:19:17;8.18;;;6.32;;
54909;SDS011;63189;51.240;9.964;2023-05-10T04:21:43;9.43;;;7.20;;
54909;SDS011;63189;51.240;9.964;2023-05-10T04:24:08;7.82;;;6.15;;
54909;SDS011;63189;51.240;9.964;2023-05-10T04:26:33;6.20;;;5.03;;
54909;SDS011;63189;51.240;9.964;2023-05-10T04:29:00;5.50;;;4.82;;
54909;SDS011;63189;51.240;9.964;2023-05-10T04:31:25;6.35;;;5.00;;
54909;SDS011;63189;51.240;9.964;2023-05-10T04:33:51;5.70;;;4.65;;
54909;SDS011;63189;51.240;9.964;2023-05-10T04:36:17;6.40;;;4.60;;
54909;SDS011;63189;51.240;9.964;2023-05-10T04:38:42;7.47;;;6.30;;
54909;SDS011;63189;51.240;9.964;2023-05-10T04:41:08;7.20;;;5.40;;
54909;SDS011;63189;51.240;9.964;2023-05-10T04:43:34;7.00;;;5.35;;
54909;SDS011;63189;51.240;9.964;2023-05-10T04:46:00;8.25;;;6.63;;
54909;SDS011;63189;51.240;9.964;2023-05-10T04:48:25;8.88;;;6.65;;
54909;SDS011;63189;51.240;9.964;2023-05-10T04:50:51;7.80;;;6.78;;
54909;SDS011;63189;51.240;9.964;2023-05-10T04:53:16;11.48;;;7.93;;
54909;SDS011;63189;51.240;9.964;2023-05-10T04:55:41;8.60;;;6.63;;
54909;SDS011;63189;51.240;9.964;2023-05-10T04:58:07;8.63;;;7.25;;
54909;SDS011;63189;51.240;9.964;2023-05-10T05:00:33;8.02;;;7.05;;
54909;SDS011;63189;51.240;9.964;2023-05-10T05:02:58;9.73;;;7.80;;
54909;SDS011;63189;51.240;9.964;2023-05-10T05:05:23;7.70;;;6.82;;
54909;SDS011;63189;51.240;9.964;2023-05-10T05:07:49;9.68;;;7.57;;
54909;SDS011;63189;51.240;9.964;2023-05-10T05:10:14;16.25;;;7.88;;
54909;SDS011;63189;51.240;9.964;2023-05-10T05:12:39;6.22;;;5.57;;
54909;SDS011;63189;51.240;9.964;2023-05-10T05:15:05;7.45;;;5.90;;
54909;SDS011;63189;51.240;9.964;2023-05-10T05:17:31;6.13;;;5.53;;
54909;SDS011;63189;51.240;9.964;2023-05-10T05:19:56;6.50;;;5.63;;
54909;SDS011;63189;51.240;9.964;2023-05-10T05:22:21;8.88;;;6.30;;
54909;SDS011;63189;51.240;9.964;2023-05-10T05:24:53;7.88;;;5.93;;
54909;SDS011;63189;51.240;9.964;2023-05-10T05:27:19;6.45;;;5.72;;
54909;SDS011;63189;51.240;9.964;2023-05-10T05:29:47;7.05;;;5.82;;
54909;SDS011;63189;51.240;9.964;2023-05-10T05:32:12;9.48;;;6.80;;
54909;SDS011;63189;51.240;9.964;2023-05-10T05:34:38;7.78;;;5.22;;
54909;SDS011;63189;51.240;9.964;2023-05-10T05:37:03;7.07;;;4.80;;
54909;SDS011;63189;51.240;9.964;2023-05-10T05:39:28;5.90;;;4.22;;
54909;SDS011;63189;51.240;9.964;2023-05-10T05:41:54;7.55;;;4.75;;
54909;SDS011;63189;51.240;9.964;2023-05-10T05:44:19;7.20;;;4.22;;
54909;SDS011;63189;51.240;9.964;2023-05-10T05:46:45;5.53;;;4.00;;
54909;SDS011;63189;51.240;9.964;2023-05-10T05:49:10;5.03;;;4.00;;
54909;SDS011;63189;51.240;9.964;2023-05-10T05:51:35;5.70;;;3.67;;
54909;SDS011;63189;51.240;9.964;2023-05-10T05:54:01;5.30;;;3.60;;
54909;SDS011;63189;51.240;9.964;2023-05-10T05:56:28;5.50;;;4.13;;
54909;SDS011;63189;51.240;9.964;2023-05-10T05:58:53;5.55;;;3.80;;
54909;SDS011;63189;51.240;9.964;2023-05-10T06:01:19;5.20;;;3.38;;
54909;SDS011;63189;51.240;9.964;2023-05-10T06:03:44;4.93;;;3.28;;
54909;SDS011;63189;51.240;9.964;2023-05-10T06:06:09;4.88;;;3.60;;
54909;SDS011;63189;51.240;9.964;2023-05-10T06:08:35;3.72;;;3.20;;
54909;SDS011;63189;51.240;9.964;2023-05-10T06:11:00;3.63;;;2.70;;
54909;SDS011;63189;51.240;9.964;2023-05-10T06:13:26;4.63;;;2.63;;
54909;SDS011;63189;51.240;9.964;2023-05-10T06:15:57;3.00;;;2.70;;
54909;SDS011;63189;51.240;9.964;2023-05-10T06:18:22;2.45;;;2.05;;
54909;SDS011;63189;51.240;9.964;2023-05-10T06:20:49;3.70;;;2.83;;
54909;SDS011;63189;51.240;9.964;2023-05-10T06:23:15;3.03;;;2.20;;
54909;SDS011;63189;51.240;9.964;2023-05-10T06:25:40;3.85;;;2.53;;
54909;SDS011;63189;51.240;9.964;2023-05-10T06:28:05;3.95;;;2.47;;
54909;SDS011;63189;51.240;9.964;2023-05-10T06:30:31;2.70;;;2.17;;
54909;SDS011;63189;51.240;9.964;2023-05-10T06:32:56;2.20;;;1.85;;
54909;SDS011;63189;51.240;9.964;2023-05-10T06:35:21;2.33;;;2.00;;
54909;SDS011;63189;51.240;9.964;2023-05-10T06:37:47;3.50;;;2.20;;
54909;SDS011;63189;51.240;9.964;2023-05-10T06:40:12;2.00;;;1.80;;
54909;SDS011;63189;51.240;9.964;2023-05-10T06:42:38;4.78;;;2.50;;
54909;SDS011;63189;51.240;9.964;2023-05-10T06:45:03;3.08;;;2.50;;
54909;SDS011;63189;51.240;9.964;2023-05-10T06:47:29;3.08;;;2.10;;
54909;SDS011;63189;51.240;9.964;2023-05-10T06:49:54;2.63;;;2.17;;
54909;SDS011;63189;51.240;9.964;2023-05-10T06:52:20;3.50;;;2.50;;
54909;SDS011;63189;51.240;9.964;2023-05-10T06:54:46;4.10;;;2.97;;
54909;SDS011;63189;51.240;9.964;2023-05-10T06:57:11;3.00;;;2.47;;
54909;SDS011;63189;51.240;9.964;2023-05-10T06:59:36;5.53;;;2.65;;
54909;SDS011;63189;51.240;9.964;2023-05-10T07:02:04;4.45;;;2.60;;
54909;SDS011;63189;51.240;9.964;2023-05-10T07:04:30;2.92;;;2.40;;
54909;SDS011;63189;51.240;9.964;2023-05-10T07:06:56;4.90;;;2.65;;
54909;SDS011;63189;51.240;9.964;2023-05-10T07:09:24;2.70;;;2.20;;
54909;SDS011;63189;51.240;9.964;2023-05-10T07:11:49;2.08;;;1.70;;
54909;SDS011;63189;51.240;9.964;2023-05-10T07:14:15;1.73;;;1.48;;
54909;SDS011;63189;51.240;9.964;2023-05-10T07:16:40;1.67;;;1.33;;
54909;SDS011;63189;51.240;9.964;2023-05-10T07:19:05;2.00;;;1.08;;
54909;SDS011;63189;51.240;9.964;2023-05-10T07:21:31;1.20;;;0.90;;
54909;SDS011;63189;51.240;9.964;2023-05-10T07:23:57;0.60;;;0.50;;
54909;SDS011;63189;51.240;9.964;2023-05-10T07:26:22;0.28;;;0.28;;
54909;SDS011;63189;51.240;9.964;2023-05-10T07:28:48;0.70;;;0.40;;
54909;SDS011;63189;51.240;9.964;2023-05-10T07:31:14;0.10;;;0.10;;
54909;SDS011;63189;51.240;9.964;2023-05-10T07:33:39;0.28;;;0.20;;
54909;SDS011;63189;51.240;9.964;2023-05-10T07:36:05;0.38;;;0.20;;
54909;SDS011;63189;51.240;9.964;2023-05-10T07:38:30;1.35;;;0.10;;
54909;SDS011;63189;51.240;9.964;2023-05-10T07:40:55;0.10;;;0.10;;
54909;SDS011;63189;51.240;9.964;2023-05-10T07:43:21;0.52;;;0.15;;
54909;SDS011;63189;51.240;9.964;2023-05-10T07:45:48;0.85;;;0.30;;
54909;SDS011;63189;51.240;9.964;2023-05-10T07:48:14;0.52;;;0.40;;
54909;SDS011;63189;51.240;9.964;2023-05-10T07:50:39;1.35;;;0.45;;
54909;SDS011;63189;51.240;9.964;2023-05-10T07:53:05;0.40;;;0.30;;
54909;SDS011;63189;51.240;9.964;2023-05-10T07:55:32;0.30;;;0.30;;
54909;SDS011;63189;51.240;9.964;2023-05-10T07:58:03;0.30;;;0.30;;
54909;SDS011;63189;51.240;9.964;2023-05-10T08:00:29;0.73;;;0.43;;
54909;SDS011;63189;51.240;9.964;2023-05-10T08:02:54;1.10;;;0.22;;
54909;SDS011;63189;51.240;9.964;2023-05-10T08:05:19;0.30;;;0.30;;
54909;SDS011;63189;51.240;9.964;2023-05-10T08:07:45;0.98;;;0.35;;
54909;SDS011;63189;51.240;9.964;2023-05-10T08:10:10;1.88;;;0.32;;
54909;SDS011;63189;51.240;9.964;2023-05-10T08:12:38;0.30;;;0.30;;
54909;SDS011;63189;51.240;9.964;2023-05-10T08:15:04;0.30;;;0.30;;
54909;SDS011;63189;51.240;9.964;2023-05-10T08:17:29;0.45;;;0.40;;
54909;SDS011;63189;51.240;9.964;2023-05-10T08:19:55;0.93;;;0.32;;
54909;SDS011;63189;51.240;9.964;2023-05-10T08:22:20;0.32;;;0.32;;
54909;SDS011;63189;51.240;9.964;2023-05-10T08:24:46;1.15;;;0.40;;
54909;SDS011;63189;51.240;9.964;2023-05-10T08:27:11;0.20;;;0.20;;
54909;SDS011;63189;51.240;9.964;2023-05-10T08:29:37;0.20;;;0.20;;
54909;SDS011;63189;51.240;9.964;2023-05-10T08:32:02;0.50;;;0.20;;
54909;SDS011;63189;51.240;9.964;2023-05-10T08:34:28;0.30;;;0.30;;
54909;SDS011;63189;51.240;9.964;2023-05-10T08:36:53;0.28;;;0.20;;
54909;SDS011;63189;51.240;9.964;2023-05-10T08:39:18;0.40;;;0.30;;
54909;SDS011;63189;51.240;9.964;2023-05-10T08:41:44;1.48;;;0.20;;
54909;SDS011;63189;51.240;9.964;2023-05-10T08:44:11;0.40;;;0.20;;
54909;SDS011;63189;51.240;9.964;2023-05-10T08:46:37;0.30;;;0.22;;
54909;SDS011;63189;51.240;9.964;2023-05-10T08:49:09;0.20;;;0.20;;
54909;SDS011;63189;51.240;9.964;2023-05-10T08:51:43;0.30;;;0.30;;
54909;SDS011;63189;51.240;9.964;2023-05-10T08:54:12;1.00;;;0.47;;
54909;SDS011;63189;51.240;9.964;2023-05-10T08:56:37;0.75;;;0.40;;
54909;SDS011;63189;51.240;9.964;2023-05-10T08:59:03;0.57;;;0.40;;
54909;SDS011;63189;51.240;9.964;2023-05-10T09:01:28;1.25;;;0.50;;
54909;SDS011;63189;51.240;9.964;2023-05-10T09:03:56;6.10;;;2.58;;
54909;SDS011;63189;51.240;9.964;2023-05-10T09:06:22;3.28;;;1.55;;
54909;SDS011;63189;51.240;9.964;2023-05-10T09:08:48;3.58;;;0.70;;
54909;SDS011;63189;51.240;9.964;2023-05-10T09:11:14;2.38;;;0.50;;
54909;SDS011;63189;51.240;9.964;2023-05-10T09:13:41;1.80;;;0.50;;
54909;SDS011;63189;51.240;9.964;2023-05-10T09:16:07;0.70;;;0.68;;
54909;SDS011;63189;51.240;9.964;2023-05-10T09:18:32;0.57;;;0.57;;
54909;SDS011;63189;51.240;9.964;2023-05-10T09:20:58;0.93;;;0.75;;
54909;SDS011;63189;51.240;9.964;2023-05-10T09:23:23;1.17;;;0.70;;
54909;SDS011;63189;51.240;9.964;2023-05-10T09:26:03;1.33;;;0.65;;
54909;SDS011;63189;51.240;9.964;2023-05-10T09:31:20;2.50;;;0.80;;
54909;SDS011;63189;51.240;9.964;2023-05-10T09:33:46;1.10;;;0.70;;
54909;SDS011;63189;51.240;9.964;2023-05-10T09:36:13;0.63;;;0.50;;
54909;SDS011;63189;51.240;9.964;2023-05-10T09:38:46;0.50;;;0.47;;
54909;SDS011;63189;51.240;9.964;2023-05-10T09:41:16;0.85;;;0.80;;
54909;SDS011;63189;51.240;9.964;2023-05-10T09:43:42;1.55;;;0.70;;
54909;SDS011;63189;51.240;9.964;2023-05-10T09:46:08;2.38;;;0.90;;
54909;SDS011;63189;51.240;9.964;2023-05-10T09:48:34;1.58;;;0.90;;
54909;SDS011;63189;51.240;9.964;2023-05-10T09:51:06;1.13;;;0.77;;
54909;SDS011;63189;51.240;9.964;2023-05-10T09:53:32;1.58;;;0.88;;
54909;SDS011;63189;51.240;9.964;2023-05-10T09:55:57;1.35;;;0.85;;
54909;SDS011;63189;51.240;9.964;2023-05-10T09:58:22;1.48;;;1.08;;
54909;SDS011;63189;51.240;9.964;2023-05-10T10:00:48;2.65;;;0.82;;
54909;SDS011;63189;51.240;9.964;2023-05-10T10:03:16;1.00;;;0.60;;
54909;SDS011;63189;51.240;9.964;2023-05-10T10:05:44;1.48;;;0.73;;
54909;SDS011;63189;51.240;9.964;2023-05-10T10:08:11;2.42;;;0.85;;
54909;SDS011;63189;51.240;9.964;2023-05-10T10:10:37;2.15;;;0.90;;
54909;SDS011;63189;51.240;9.964;2023-05-10T10:13:05;1.83;;;0.80;;
54909;SDS011;63189;51.240;9.964;2023-05-10T10:15:30;3.10;;;0.73;;
54909;SDS011;63189;51.240;9.964;2023-05-10T10:18:00;0.82;;;0.68;;
54909;SDS011;63189;51.240;9.964;2023-05-10T10:20:26;0.93;;;0.80;;
54909;SDS011;63189;51.240;9.964;2023-05-10T10:22:54;1.98;;;1.00;;
54909;SDS011;63189;51.240;9.964;2023-05-10T10:25:20;1.70;;;1.10;;
54909;SDS011;63189;51.240;9.964;2023-05-10T10:35:35;2.42;;;0.90;;
54909;SDS011;63189;51.240;9.964;2023-05-10T10:38:01;1.08;;;0.73;;
54909;SDS011;63189;51.240;9.964;2023-05-10T10:42:57;1.27;;;0.70;;
54909;SDS011;63189;51.240;9.964;2023-05-10T10:45:43;1.13;;;0.90;;
54909;SDS011;63189;51.240;9.964;2023-05-10T10:48:19;0.85;;;0.70;;
54909;SDS011;63189;51.240;9.964;2023-05-10T10:50:46;1.45;;;0.80;;
54909;SDS011;63189;51.240;9.964;2023-05-10T10:53:12;1.27;;;0.85;;
54909;SDS011;63189;51.240;9.964;2023-05-10T10:55:45;1.60;;;1.00;;
54909;SDS011;63189;51.240;9.964;2023-05-10T10:58:12;1.58;;;1.00;;
54909;SDS011;63189;51.240;9.964;2023-05-10T11:01:08;2.88;;;1.30;;
54909;SDS011;63189;51.240;9.964;2023-05-10T11:03:35;0.90;;;0.80;;
54909;SDS011;63189;51.240;9.964;2023-05-10T11:06:00;2.42;;;1.10;;
54909;SDS011;63189;51.240;9.964;2023-05-10T11:08:34;2.80;;;0.93;;
54909;SDS011;63189;51.240;9.964;2023-05-10T11:11:08;1.48;;;1.00;;
54909;SDS011;63189;51.240;9.964;2023-05-10T11:13:34;1.88;;;0.90;;
54909;SDS011;63189;51.240;9.964;2023-05-10T11:16:11;3.15;;;1.10;;
54909;SDS011;63189;51.240;9.964;2023-05-10T11:19:03;1.20;;;0.70;;
54909;SDS011;63189;51.240;9.964;2023-05-10T11:21:30;0.95;;;0.65;;
54909;SDS011;63189;51.240;9.964;2023-05-10T11:23:59;1.73;;;0.98;;
54909;SDS011;63189;51.240;9.964;2023-05-10T11:26:37;1.17;;;0.80;;
54909;SDS011;63189;51.240;9.964;2023-05-10T11:29:03;1.00;;;0.80;;
54909;SDS011;63189;51.240;9.964;2023-05-10T11:31:29;2.22;;;1.40;;
54909;SDS011;63189;51.240;9.964;2023-05-10T11:33:55;1.48;;;0.90;;
54909;SDS011;63189;51.240;9.964;2023-05-10T11:39:11;3.63;;;0.80;;
54909;SDS011;63189;51.240;9.964;2023-05-10T11:41:36;1.08;;;0.80;;
54909;SDS011;63189;51.240;9.964;2023-05-10T11:44:02;2.65;;;1.10;;
54909;SDS011;63189;51.240;9.964;2023-05-10T11:46:28;1.75;;;1.05;;
54909;SDS011;63189;51.240;9.964;2023-05-10T11:48:55;1.90;;;1.00;;
54909;SDS011;63189;51.240;9.964;2023-05-10T11:51:33;1.50;;;0.90;;
54909;SDS011;63189;51.240;9.964;2023-05-10T11:54:00;2.72;;;1.00;;
54909;SDS011;63189;51.240;9.964;2023-05-10T11:56:25;1.17;;;0.82;;
54909;SDS011;63189;51.240;9.964;2023-05-10T11:58:55;1.80;;;1.10;;
54909;SDS011;63189;51.240;9.964;2023-05-10T12:01:26;3.90;;;1.00;;
54909;SDS011;63189;51.240;9.964;2023-05-10T12:03:53;1.35;;;0.90;;
54909;SDS011;63189;51.240;9.964;2023-05-10T12:06:25;2.15;;;0.80;;
54909;SDS011;63189;51.240;9.964;2023-05-10T12:08:52;2.50;;;1.00;;
54909;SDS011;63189;51.240;9.964;2023-05-10T12:11:18;2.80;;;1.15;;
54909;SDS011;63189;51.240;9.964;2023-05-10T12:13:46;1.75;;;1.02;;
54909;SDS011;63189;51.240;9.964;2023-05-10T12:16:13;2.63;;;1.05;;
54909;SDS011;63189;51.240;9.964;2023-05-10T12:18:42;3.05;;;0.90;;
54909;SDS011;63189;51.240;9.964;2023-05-10T12:21:09;3.35;;;0.95;;
54909;SDS011;63189;51.240;9.964;2023-05-10T12:23:36;1.90;;;1.00;;
54909;SDS011;63189;51.240;9.964;2023-05-10T12:26:02;1.48;;;1.05;;
54909;SDS011;63189;51.240;9.964;2023-05-10T12:28:32;1.67;;;1.02;;
54909;SDS011;63189;51.240;9.964;2023-05-10T12:30:57;1.40;;;0.90;;
54909;SDS011;63189;51.240;9.964;2023-05-10T12:33:24;1.58;;;1.00;;
54909;SDS011;63189;51.240;9.964;2023-05-10T12:35:50;2.45;;;1.10;;
54909;SDS011;63189;51.240;9.964;2023-05-10T12:38:27;2.90;;;0.85;;
54909;SDS011;63189;51.240;9.964;2023-05-10T12:40:58;1.33;;;0.90;;
54909;SDS011;63189;51.240;9.964;2023-05-10T12:43:25;1.42;;;0.82;;
54909;SDS011;63189;51.240;9.964;2023-05-10T12:45:50;1.88;;;0.98;;
54909;SDS011;63189;51.240;9.964;2023-05-10T12:48:15;1.42;;;0.90;;
54909;SDS011;63189;51.240;9.964;2023-05-10T12:50:41;1.17;;;0.90;;
54909;SDS011;63189;51.240;9.964;2023-05-10T12:53:06;1.50;;;0.90;;
54909;SDS011;63189;51.240;9.964;2023-05-10T12:55:31;3.67;;;1.15;;
54909;SDS011;63189;51.240;9.964;2023-05-10T12:57:57;2.10;;;0.98;;
54909;SDS011;63189;51.240;9.964;2023-05-10T13:00:22;2.40;;;0.77;;
54909;SDS011;63189;51.240;9.964;2023-05-10T13:02:48;1.98;;;1.02;;
54909;SDS011;63189;51.240;9.964;2023-05-10T13:05:14;1.85;;;1.10;;
54909;SDS011;63189;51.240;9.964;2023-05-10T13:07:39;4.32;;;1.00;;
54909;SDS011;63189;51.240;9.964;2023-05-10T13:10:06;2.47;;;1.17;;
54909;SDS011;63189;51.240;9.964;2023-05-10T13:12:31;2.25;;;0.90;;
54909;SDS011;63189;51.240;9.964;2023-05-10T13:14:57;2.00;;;1.00;;
54909;SDS011;63189;51.240;9.964;2023-05-10T13:17:22;1.48;;;1.00;;
54909;SDS011;63189;51.240;9.964;2023-05-10T13:19:47;1.75;;;1.30;;
54909;SDS011;63189;51.240;9.964;2023-05-10T13:22:13;1.58;;;1.17;;
54909;SDS011;63189;51.240;9.964;2023-05-10T13:24:38;1.77;;;1.10;;
54909;SDS011;63189;51.240;9.964;2023-05-10T13:27:03;1.88;;;1.10;;
54909;SDS011;63189;51.240;9.964;2023-05-10T13:29:29;3.90;;;1.30;;
54909;SDS011;63189;51.240;9.964;2023-05-10T13:31:54;2.33;;;1.10;;
54909;SDS011;63189;51.240;9.964;2023-05-10T13:34:19;2.00;;;1.00;;
54909;SDS011;63189;51.240;9.964;2023-05-10T13:36:46;3.58;;;1.15;;
54909;SDS011;63189;51.240;9.964;2023-05-10T13:39:12;1.85;;;1.17;;
54909;SDS011;63189;51.240;9.964;2023-05-10T13:41:38;1.40;;;0.93;;
54909;SDS011;63189;51.240;9.964;2023-05-10T13:44:03;2.85;;;0.95;;
54909;SDS011;63189;51.240;9.964;2023-05-10T13:46:29;2.67;;;1.00;;
54909;SDS011;63189;51.240;9.964;2023-05-10T13:48:55;1.05;;;0.95;;
54909;SDS011;63189;51.240;9.964;2023-05-10T13:51:21;1.05;;;0.80;;
54909;SDS011;63189;51.240;9.964;2023-05-10T13:53:47;3.10;;;0.85;;
54909;SDS011;63189;51.240;9.964;2023-05-10T13:56:12;2.47;;;1.30;;
54909;SDS011;63189;51.240;9.964;2023-05-10T13:58:38;3.78;;;1.60;;
54909;SDS011;63189;51.240;9.964;2023-05-10T14:01:03;3.60;;;1.40;;
54909;SDS011;63189;51.240;9.964;2023-05-10T14:03:30;5.50;;;1.67;;
54909;SDS011;63189;51.240;9.964;2023-05-10T14:05:55;1.92;;;1.33;;
54909;SDS011;63189;51.240;9.964;2023-05-10T14:08:21;2.50;;;1.70;;
54909;SDS011;63189;51.240;9.964;2023-05-10T14:10:46;3.10;;;1.80;;
54909;SDS011;63189;51.240;9.964;2023-05-10T14:13:12;2.22;;;1.60;;
54909;SDS011;63189;51.240;9.964;2023-05-10T14:15:37;3.35;;;1.77;;
54909;SDS011;63189;51.240;9.964;2023-05-10T14:18:02;2.85;;;2.20;;
54909;SDS011;63189;51.240;9.964;2023-05-10T14:20:28;4.07;;;2.20;;
54909;SDS011;63189;51.240;9.964;2023-05-10T14:22:54;2.42;;;1.80;;
54909;SDS011;63189;51.240;9.964;2023-05-10T14:25:19;4.63;;;1.63;;
54909;SDS011;63189;51.240;9.964;2023-05-10T14:27:44;3.40;;;1.55;;
54909;SDS011;63189;51.240;9.964;2023-05-10T14:30:10;3.83;;;1.85;;
54909;SDS011;63189;51.240;9.964;2023-05-10T14:32:36;3.78;;;1.70;;
54909;SDS011;63189;51.240;9.964;2023-05-10T14:35:02;2.47;;;1.55;;
54909;SDS011;63189;51.240;9.964;2023-05-10T14:37:30;2.83;;;1.50;;
54909;SDS011;63189;51.240;9.964;2023-05-10T14:39:59;2.95;;;1.70;;
54909;SDS011;63189;51.240;9.964;2023-05-10T14:42:24;2.53;;;1.67;;
54909;SDS011;63189;51.240;9.964;2023-05-10T14:44:53;3.05;;;1.48;;
54909;SDS011;63189;51.240;9.964;2023-05-10T14:47:18;2.10;;;1.20;;
54909;SDS011;63189;51.240;9.964;2023-05-10T14:49:44;2.17;;;1.35;;
54909;SDS011;63189;51.240;9.964;2023-05-10T14:52:10;1.85;;;1.30;;
54909;SDS011;63189;51.240;9.964;2023-05-10T14:54:37;1.75;;;1.35;;
54909;SDS011;63189;51.240;9.964;2023-05-10T14:57:04;2.53;;;1.23;;
54909;SDS011;63189;51.240;9.964;2023-05-10T14:59:30;2.20;;;1.33;;
54909;SDS011;63189;51.240;9.964;2023-05-10T15:01:55;2.85;;;1.70;;
54909;SDS011;63189;51.240;9.964;2023-05-10T15:04:21;3.50;;;1.83;;
54909;SDS011;63189;51.240;9.964;2023-05-10T15:06:48;2.88;;;1.58;;
54909;SDS011;63189;51.240;9.964;2023-05-10T15:09:14;3.00;;;1.58;;
54909;SDS011;63189;51.240;9.964;2023-05-10T15:11:40;5.18;;;1.92;;
54909;SDS011;63189;51.240;9.964;2023-05-10T15:14:05;3.55;;;1.70;;
54909;SDS011;63189;51.240;9.964;2023-05-10T15:16:32;3.40;;;1.65;;
54909;SDS011;63189;51.240;9.964;2023-05-10T15:18:57;2.45;;;1.50;;
54909;SDS011;63189;51.240;9.964;2023-05-10T15:21:23;5.15;;;2.17;;